createdAt,value
2023-03-31T00:03:00.785Z,9.91
2023-03-31T00:06:02.469Z,9.88
2023-03-31T00:09:04.293Z,9.82
2023-03-31T00:12:07.921Z,9.82
2023-03-31T00:15:09.963Z,9.81
2023-03-31T00:18:11.592Z,9.80
2023-03-31T00:21:14.942Z,9.77
2023-03-31T00:24:16.727Z,9.75
2023-03-31T00:27:19.639Z,9.74
2023-03-31T00:30:21.556Z,9.76
2023-03-31T00:33:23.556Z,9.76
2023-03-31T00:36:28.925Z,9.76
2023-03-31T00:39:32.106Z,9.75
2023-03-31T00:42:39.563Z,9.71
2023-03-31T00:45:41.100Z,9.63
2023-03-31T00:48:45.787Z,9.62
2023-03-31T00:51:48.932Z,9.56
2023-03-31T00:54:54.436Z,9.55
2023-03-31T00:57:58.009Z,9.50
2023-03-31T01:01:02.389Z,9.44
2023-03-31T01:04:05.586Z,9.39
2023-03-31T01:07:12.492Z,9.36
2023-03-31T01:10:14.364Z,9.30
2023-03-31T01:13:18.826Z,9.27
2023-03-31T01:16:22.565Z,9.26
2023-03-31T01:19:33.386Z,9.19
2023-03-31T01:22:46.146Z,9.13
2023-03-31T01:26:07.509Z,9.15
2023-03-31T01:29:17.400Z,9.17
2023-03-31T01:32:29.966Z,9.23
2023-03-31T01:35:49.921Z,9.22
2023-03-31T01:39:09.427Z,9.18
2023-03-31T01:42:17.063Z,9.14
2023-03-31T01:45:22.906Z,9.13
2023-03-31T01:48:30.146Z,9.10
2023-03-31T01:51:34.424Z,9.04
2023-03-31T01:54:39.454Z,9.03
2023-03-31T01:57:47.326Z,8.99
2023-03-31T02:00:57.032Z,8.88
2023-03-31T02:04:00.656Z,8.80
2023-03-31T02:07:04.594Z,8.77
2023-03-31T02:10:08.928Z,8.75
2023-03-31T02:13:13.360Z,8.70
2023-03-31T02:16:22.167Z,8.73
2023-03-31T02:19:27.374Z,8.77
2023-03-31T02:22:31.972Z,8.76
2023-03-31T02:25:36.291Z,8.75
2023-03-31T02:28:40.520Z,8.74
2023-03-31T02:31:46.854Z,8.72
2023-03-31T02:34:48.853Z,8.73
2023-03-31T02:37:50.815Z,8.70
2023-03-31T02:40:52.488Z,8.67
2023-03-31T02:43:55.431Z,8.65
2023-03-31T02:46:58.508Z,8.64
2023-03-31T02:50:01.640Z,8.61
2023-03-31T02:53:07.382Z,8.59
2023-03-31T02:56:18.856Z,8.58
2023-03-31T02:59:30.698Z,8.57
2023-03-31T03:02:37.219Z,8.57
2023-03-31T03:05:45.757Z,8.57
2023-03-31T03:09:30.060Z,8.60
2023-03-31T03:12:34.200Z,8.62
2023-03-31T03:15:40.566Z,8.62
2023-03-31T03:18:43.487Z,8.61
2023-03-31T03:21:47.466Z,8.62
2023-03-31T03:24:49.201Z,8.63
2023-03-31T03:27:53.018Z,8.65
2023-03-31T03:30:57.141Z,8.64
2023-03-31T03:33:58.702Z,8.63
2023-03-31T03:37:00.411Z,8.66
2023-03-31T03:40:01.959Z,8.67
2023-03-31T03:43:03.504Z,8.68
2023-03-31T03:46:06.596Z,8.70
2023-03-31T03:49:08.536Z,8.68
2023-03-31T03:52:10.349Z,8.70
2023-03-31T03:55:12.296Z,8.71
2023-03-31T03:58:13.970Z,8.73
2023-03-31T04:01:18.156Z,8.73
2023-03-31T04:04:19.735Z,8.74
2023-03-31T04:07:21.312Z,8.69
2023-03-31T04:10:22.946Z,8.67
2023-03-31T04:13:24.526Z,8.63
2023-03-31T04:16:27.529Z,8.60
2023-03-31T04:19:29.198Z,8.57
2023-03-31T04:22:35.019Z,8.55
2023-03-31T04:25:39.114Z,8.52
2023-03-31T04:28:42.841Z,8.49
2023-03-31T04:31:45.802Z,8.47
2023-03-31T04:34:47.330Z,8.46
2023-03-31T04:37:49.138Z,8.46
2023-03-31T04:40:51.558Z,8.45
2023-03-31T04:43:53.321Z,8.46
2023-03-31T04:46:56.375Z,8.46
2023-03-31T04:49:57.927Z,8.47
2023-03-31T04:52:59.881Z,8.47
2023-03-31T04:56:01.465Z,8.46
2023-03-31T04:59:03.995Z,8.46
2023-03-31T05:02:07.153Z,8.46
2023-03-31T05:05:09.065Z,8.44
2023-03-31T05:08:10.736Z,8.43
2023-03-31T05:11:12.267Z,8.42
2023-03-31T05:14:13.833Z,8.42
2023-03-31T05:17:17.977Z,8.42
2023-03-31T05:20:20.136Z,8.40
2023-03-31T05:23:21.698Z,8.39
2023-03-31T05:26:25.050Z,8.37
2023-03-31T05:29:26.767Z,8.37
2023-03-31T05:32:29.834Z,8.37
2023-03-31T05:35:31.360Z,8.34
2023-03-31T05:38:34.731Z,8.36
2023-03-31T05:41:36.425Z,8.37
2023-03-31T05:44:38.148Z,8.36
2023-03-31T05:47:41.281Z,8.37
2023-03-31T05:50:44.074Z,8.36
2023-03-31T05:53:45.978Z,8.36
2023-03-31T05:56:47.737Z,8.37
2023-03-31T05:59:49.766Z,8.37
2023-03-31T06:02:52.889Z,8.38
2023-03-31T06:05:55.992Z,8.37
2023-03-31T06:08:57.934Z,8.37
2023-03-31T06:11:59.921Z,8.36
2023-03-31T06:15:01.497Z,8.36
2023-03-31T06:18:05.864Z,8.37
2023-03-31T06:21:08.049Z,8.38
2023-03-31T06:24:10.238Z,8.37
2023-03-31T06:27:12.027Z,8.40
2023-03-31T06:30:13.706Z,8.41
2023-03-31T06:33:16.771Z,8.41
2023-03-31T06:36:19.500Z,8.43
2023-03-31T06:39:21.108Z,8.43
2023-03-31T06:42:22.790Z,8.46
2023-03-31T06:45:25.314Z,8.45
2023-03-31T06:48:28.505Z,8.45
2023-03-31T06:51:32.140Z,8.43
2023-03-31T06:54:34.212Z,8.45
2023-03-31T06:57:36.848Z,8.47
2023-03-31T07:00:38.463Z,8.49
2023-03-31T07:03:41.430Z,8.49
2023-03-31T07:06:42.911Z,8.47
2023-03-31T07:09:44.736Z,8.49
2023-03-31T07:12:46.279Z,8.51
2023-03-31T07:15:48.829Z,8.52
2023-03-31T07:18:54.731Z,8.56
2023-03-31T07:21:56.797Z,8.62
2023-03-31T07:24:58.314Z,8.69
2023-03-31T07:27:59.843Z,8.72
2023-03-31T07:31:01.472Z,8.74
2023-03-31T07:34:04.586Z,8.76
2023-03-31T07:37:06.500Z,8.77
2023-03-31T07:40:09.272Z,8.75
2023-03-31T07:43:11.737Z,8.74
2023-03-31T07:46:17.907Z,8.69
2023-03-31T07:49:21.111Z,8.67
2023-03-31T07:52:23.638Z,8.65
2023-03-31T07:55:26.429Z,8.66
2023-03-31T07:58:28.275Z,8.66
2023-03-31T08:01:29.995Z,8.67
2023-03-31T08:04:33.348Z,8.68
2023-03-31T08:07:35.815Z,8.67
2023-03-31T08:10:37.398Z,8.68
2023-03-31T08:13:38.929Z,8.66
2023-03-31T08:16:40.526Z,8.70
2023-03-31T08:19:43.669Z,8.68
2023-03-31T08:22:45.431Z,8.69
2023-03-31T08:25:47.395Z,8.70
2023-03-31T08:28:49.380Z,8.68
2023-03-31T08:31:50.963Z,8.65
2023-03-31T08:34:53.968Z,8.65
2023-03-31T08:37:55.930Z,8.64
2023-03-31T08:41:01.533Z,8.66
2023-03-31T08:44:04.720Z,8.67
2023-03-31T08:47:09.594Z,8.68
2023-03-31T08:50:14.120Z,8.67
2023-03-31T08:53:21.569Z,8.62
2023-03-31T08:56:24.492Z,8.62
2023-03-31T08:59:27.488Z,8.62
2023-03-31T09:02:33.443Z,8.62
2023-03-31T09:05:49.390Z,8.60
2023-03-31T09:09:02.389Z,8.60
2023-03-31T09:12:07.928Z,8.59
2023-03-31T09:15:10.855Z,8.57
2023-03-31T09:18:15.564Z,8.57
2023-03-31T09:21:21.549Z,8.55
2023-03-31T09:24:24.016Z,8.51
2023-03-31T09:27:27.824Z,8.53
2023-03-31T09:30:30.329Z,8.49
2023-03-31T09:33:32.460Z,8.45
2023-03-31T09:36:35.454Z,8.41
2023-03-31T09:39:37.205Z,8.37
2023-03-31T09:42:38.776Z,8.33
2023-03-31T09:45:40.362Z,8.31
2023-03-31T09:48:46.182Z,8.26
2023-03-31T09:51:52.830Z,8.25
2023-03-31T09:54:56.847Z,8.19
2023-03-31T09:58:00.288Z,8.14
2023-03-31T10:01:03.329Z,8.14
2023-03-31T10:04:08.621Z,8.15
2023-03-31T10:07:13.251Z,8.12
2023-03-31T10:10:24.995Z,8.12
2023-03-31T10:13:29.466Z,8.11
2023-03-31T10:16:36.138Z,8.07
2023-03-31T10:19:51.252Z,8.03
2023-03-31T10:22:54.724Z,8.01
2023-03-31T10:25:57.176Z,8.01
2023-03-31T10:28:58.868Z,8.00
2023-03-31T10:32:04.475Z,8.03
2023-03-31T10:35:07.497Z,8.06
2023-03-31T10:38:14.802Z,8.12
2023-03-31T10:41:18.542Z,8.17
2023-03-31T10:44:33.833Z,8.24
2023-03-31T10:47:36.181Z,8.28
2023-03-31T10:50:37.950Z,8.35
2023-03-31T10:53:42.304Z,8.48
2023-03-31T10:56:47.193Z,8.56
2023-03-31T10:59:58.554Z,8.59
2023-03-31T11:03:18.222Z,8.61
2023-03-31T11:06:22.871Z,8.61
2023-03-31T11:09:37.760Z,8.58
2023-03-31T11:12:41.679Z,8.52
2023-03-31T11:15:48.769Z,8.46
2023-03-31T11:18:56.807Z,8.37
2023-03-31T11:22:04.007Z,8.41
2023-03-31T11:25:17.746Z,8.41
2023-03-31T11:28:27.198Z,8.40
2023-03-31T11:31:36.994Z,8.35
2023-03-31T11:34:45.953Z,8.23
2023-03-31T11:37:57.338Z,8.21
2023-03-31T11:41:02.226Z,8.18
2023-03-31T11:44:05.504Z,8.11
2023-03-31T11:47:09.577Z,8.16
2023-03-31T11:50:12.545Z,8.16
2023-03-31T11:53:17.531Z,8.23
2023-03-31T11:56:21.618Z,8.30
2023-03-31T11:59:27.467Z,8.41
2023-03-31T12:02:36.572Z,8.52
2023-03-31T12:05:41.956Z,8.60
2023-03-31T12:08:47.504Z,8.71
2023-03-31T12:11:53.616Z,8.77
2023-03-31T12:15:00.746Z,8.86
2023-03-31T12:18:04.793Z,8.93
2023-03-31T12:21:06.670Z,9.05
2023-03-31T12:24:11.178Z,9.17
2023-03-31T12:27:17.146Z,9.32
2023-03-31T12:30:22.552Z,9.43
2023-03-31T12:33:27.830Z,9.54
2023-03-31T12:36:36.023Z,9.68
2023-03-31T12:39:44.501Z,9.78
2023-03-31T12:42:55.246Z,9.96
2023-03-31T12:46:04.274Z,10.30
2023-03-31T12:49:16.245Z,10.82
2023-03-31T12:52:22.840Z,11.37
2023-03-31T12:55:31.882Z,11.47
2023-03-31T12:58:39.662Z,11.20
2023-03-31T13:02:08.363Z,11.30
2023-03-31T13:05:28.793Z,11.85
2023-03-31T13:08:50.654Z,12.05
2023-03-31T13:11:52.233Z,12.15
2023-03-31T13:15:00.046Z,12.09
2023-03-31T13:18:03.257Z,11.66
2023-03-31T13:21:06.360Z,11.34
2023-03-31T13:24:08.609Z,11.19
2023-03-31T13:27:28.962Z,11.17
2023-03-31T13:30:49.066Z,11.11
2023-03-31T13:33:57.433Z,11.07
2023-03-31T13:37:08.765Z,11.10
2023-03-31T13:40:20.824Z,11.15
2023-03-31T13:43:44.831Z,11.04
2023-03-31T13:46:59.490Z,10.84
2023-03-31T13:50:17.180Z,10.35
2023-03-31T13:53:26.013Z,9.95
2023-03-31T13:56:42.460Z,9.82
2023-03-31T13:59:58.729Z,9.70
2023-03-31T14:03:13.918Z,9.58
2023-03-31T14:06:20.969Z,9.53
2023-03-31T14:09:25.862Z,9.53
2023-03-31T14:12:31.500Z,9.61
2023-03-31T14:15:34.016Z,9.63
2023-03-31T14:18:38.353Z,9.50
2023-03-31T14:21:44.504Z,9.54
2023-03-31T14:24:50.998Z,9.51
2023-03-31T14:27:58.458Z,9.53
2023-03-31T14:31:11.027Z,9.52
2023-03-31T14:34:25.317Z,9.53
2023-03-31T14:37:28.142Z,9.56
2023-03-31T14:40:30.834Z,9.53
2023-03-31T14:43:36.095Z,9.48
2023-03-31T14:46:38.910Z,9.44
2023-03-31T14:49:41.880Z,9.42
2023-03-31T14:52:46.610Z,9.33
2023-03-31T14:55:57.978Z,9.25
2023-03-31T14:59:00.210Z,9.20
2023-03-31T15:02:03.465Z,9.11
2023-03-31T15:05:09.729Z,9.11
2023-03-31T15:08:12.637Z,9.15
2023-03-31T15:11:19.163Z,9.15
2023-03-31T15:14:21.796Z,9.16
2023-03-31T15:17:24.753Z,9.17
2023-03-31T15:20:32.182Z,9.16
2023-03-31T15:23:40.417Z,9.16
2023-03-31T15:26:44.722Z,9.20
2023-03-31T15:29:48.014Z,9.25
2023-03-31T15:32:49.683Z,9.31
2023-03-31T15:35:52.955Z,9.34
2023-03-31T15:38:56.883Z,9.37
2023-03-31T15:41:59.309Z,9.36
2023-03-31T15:45:23.389Z,9.41
2023-03-31T15:48:28.715Z,9.40
2023-03-31T15:51:34.324Z,9.40
2023-03-31T15:54:37.013Z,9.41
2023-03-31T15:57:44.025Z,9.41
2023-03-31T16:00:47.386Z,9.45
2023-03-31T16:03:52.353Z,9.47
2023-03-31T16:06:58.614Z,9.49
2023-03-31T16:10:03.473Z,9.50
2023-03-31T16:13:06.453Z,9.49
2023-03-31T16:16:08.776Z,9.47
2023-03-31T16:19:10.454Z,9.47
2023-03-31T16:22:15.769Z,9.43
2023-03-31T16:25:18.533Z,9.44
2023-03-31T16:28:25.004Z,9.44
2023-03-31T16:31:34.615Z,9.41
2023-03-31T16:34:51.267Z,9.40
2023-03-31T16:37:55.343Z,9.38
2023-03-31T16:40:57.785Z,9.38
2023-03-31T16:43:59.711Z,9.36
2023-03-31T16:47:01.370Z,9.36
2023-03-31T16:50:07.109Z,9.35
2023-03-31T16:53:12.347Z,9.36
2023-03-31T16:56:14.164Z,9.36
2023-03-31T16:59:16.035Z,9.34
2023-03-31T17:02:17.581Z,9.36
2023-03-31T17:05:20.900Z,9.34
2023-03-31T17:08:24.896Z,9.34
2023-03-31T17:11:26.631Z,9.33
2023-03-31T17:14:28.630Z,9.32
2023-03-31T17:17:30.254Z,9.32
2023-03-31T17:20:32.790Z,9.35
2023-03-31T17:23:36.228Z,9.36
2023-03-31T17:26:39.374Z,9.38
2023-03-31T17:29:41.347Z,9.36
2023-03-31T17:32:42.969Z,9.35
2023-03-31T17:35:44.689Z,9.36
2023-03-31T17:38:50.381Z,9.35
2023-03-31T17:41:51.938Z,9.34
2023-03-31T17:44:53.840Z,9.34
2023-03-31T17:47:55.478Z,9.36
2023-03-31T17:50:57.289Z,9.36
2023-03-31T17:54:00.272Z,9.37
2023-03-31T17:57:01.876Z,9.34
2023-03-31T18:00:04.293Z,9.26
2023-03-31T18:03:11.665Z,9.24
2023-03-31T18:06:14.048Z,9.18
2023-03-31T18:09:17.269Z,9.14
2023-03-31T18:12:18.975Z,9.08
2023-03-31T18:15:21.060Z,9.06
2023-03-31T18:18:23.662Z,9.05
2023-03-31T18:21:25.876Z,8.98
2023-03-31T18:24:29.051Z,8.99
2023-03-31T18:27:31.093Z,8.97
2023-03-31T18:30:33.140Z,8.96
2023-03-31T18:33:35.058Z,8.95
2023-03-31T18:36:37.172Z,8.94
2023-03-31T18:39:40.284Z,8.90
2023-03-31T18:42:42.128Z,8.88
2023-03-31T18:45:43.935Z,8.87
2023-03-31T18:48:45.654Z,8.88
2023-03-31T18:51:47.295Z,8.91
2023-03-31T18:54:51.337Z,8.90
2023-03-31T18:57:52.914Z,8.89
2023-03-31T19:00:54.627Z,8.89
2023-03-31T19:03:56.574Z,8.88
2023-03-31T19:06:58.222Z,8.88
2023-03-31T19:10:01.525Z,8.90
2023-03-31T19:13:03.114Z,8.91
2023-03-31T19:16:05.020Z,8.89
2023-03-31T19:19:06.793Z,8.90
2023-03-31T19:22:08.634Z,8.91
2023-03-31T19:25:11.890Z,8.91
2023-03-31T19:28:14.804Z,8.91
2023-03-31T19:31:16.495Z,8.92
2023-03-31T19:34:18.225Z,8.91
2023-03-31T19:37:20.092Z,8.88
2023-03-31T19:40:23.085Z,8.85
2023-03-31T19:43:25.167Z,8.84
2023-03-31T19:46:27.100Z,8.85
2023-03-31T19:49:28.810Z,8.81
2023-03-31T19:52:30.752Z,8.77
2023-03-31T19:55:37.411Z,8.74
2023-03-31T19:58:39.273Z,8.73
2023-03-31T20:01:41.407Z,8.70
2023-03-31T20:04:43.890Z,8.67
2023-03-31T20:07:46.333Z,8.68
2023-03-31T20:10:52.706Z,8.68
2023-03-31T20:13:54.436Z,8.65
2023-03-31T20:16:56.169Z,8.62
2023-03-31T20:19:58.086Z,8.61
2023-03-31T20:22:59.855Z,8.61
2023-03-31T20:26:03.288Z,8.61
2023-03-31T20:29:05.203Z,8.59
2023-03-31T20:32:07.249Z,8.58
2023-03-31T20:35:08.999Z,8.57
2023-03-31T20:38:10.651Z,8.56
2023-03-31T20:41:13.918Z,8.55
2023-03-31T20:44:16.023Z,8.54
2023-03-31T20:47:17.729Z,8.55
2023-03-31T20:50:22.447Z,8.51
2023-03-31T20:53:24.118Z,8.51
2023-03-31T20:56:27.992Z,8.49
2023-03-31T20:59:29.612Z,8.47
2023-03-31T21:02:31.617Z,8.45
2023-03-31T21:05:39.819Z,8.43
2023-03-31T21:08:42.477Z,8.43
2023-03-31T21:11:45.940Z,8.42
2023-03-31T21:14:47.743Z,8.41
2023-03-31T21:17:49.368Z,8.41
2023-03-31T21:20:51.994Z,8.39
2023-03-31T21:23:54.404Z,8.38
2023-03-31T21:26:57.484Z,8.40
2023-03-31T21:29:59.342Z,8.37
2023-03-31T21:33:01.231Z,8.37
2023-03-31T21:36:04.920Z,8.36
2023-03-31T21:39:06.761Z,8.36
2023-03-31T21:42:10.320Z,8.34
2023-03-31T21:45:12.655Z,8.35
2023-03-31T21:48:14.948Z,8.33
2023-03-31T21:51:17.092Z,8.32
2023-03-31T21:54:19.154Z,8.33
2023-03-31T21:57:22.280Z,8.33
2023-03-31T22:00:23.930Z,8.32
2023-03-31T22:03:28.761Z,8.32
2023-03-31T22:06:30.800Z,8.30
2023-03-31T22:09:32.517Z,8.30
2023-03-31T22:12:36.563Z,8.29
2023-03-31T22:15:40.439Z,8.29
2023-03-31T22:22:03.173Z,8.29
2023-03-31T22:25:05.346Z,8.29
2023-03-31T22:28:09.082Z,8.30
2023-03-31T22:31:10.757Z,8.30
2023-03-31T22:34:12.380Z,8.29
2023-03-31T22:37:13.961Z,8.30
2023-03-31T22:40:15.624Z,8.27
2023-03-31T22:43:18.885Z,8.25
2023-03-31T22:46:20.723Z,8.26
2023-03-31T22:49:22.519Z,8.25
2023-03-31T22:52:25.255Z,8.24
2023-03-31T22:55:26.968Z,8.22
2023-03-31T22:58:30.068Z,8.22
2023-03-31T23:01:32.308Z,8.20
2023-03-31T23:04:33.996Z,8.18
2023-03-31T23:07:36.188Z,8.17
2023-03-31T23:10:37.954Z,8.16
2023-03-31T23:13:40.943Z,8.14
2023-03-31T23:16:42.730Z,8.13
2023-03-31T23:19:46.414Z,8.11
2023-03-31T23:22:50.099Z,8.11
2023-03-31T23:25:51.810Z,8.10
2023-03-31T23:28:54.904Z,8.09
2023-03-31T23:31:56.698Z,8.06
2023-03-31T23:34:58.335Z,8.05
2023-03-31T23:38:00.033Z,8.04
2023-03-31T23:41:02.538Z,8.03
2023-03-31T23:44:06.352Z,8.02
2023-03-31T23:47:08.089Z,7.99
2023-03-31T23:50:10.158Z,7.96
2023-03-31T23:53:12.454Z,7.92
2023-03-31T23:56:14.835Z,7.91
2023-03-31T23:59:17.980Z,7.88
